Time;durP1;ratioP1;P1;durP2;ratioP2;P2;SDS_P1;SDS_P2;PMS_P1;PMS_P2;Temp;Humidity;BMP_temperature;BMP_pressure;BME280_temperature;BME280_humidity;BME280_pressure;Samples;Min_cycle;Max_cycle;Signal;HPM_P1;HPM_P2
2022/09/18 00:01:30;;;;;;;5.10;4.60;;;20.00;99.90;;;;;;4992420;28;20177;-71
2022/09/18 00:04:03;;;;;;;6.73;4.83;;;20.00;99.90;;;;;;4988545;28;20590;-71
2022/09/18 00:06:37;;;;;;;7.67;4.97;;;20.10;99.90;;;;;;4991782;28;20654;-71
2022/09/18 00:09:08;;;;;;;7.73;5.17;;;20.10;99.90;;;;;;5007471;28;20199;-71
2022/09/18 00:11:42;;;;;;;7.07;4.80;;;20.10;99.90;;;;;;5009179;28;20708;-71
2022/09/18 00:14:15;;;;;;;6.83;4.70;;;20.10;99.90;;;;;;5008837;28;20268;-71
2022/09/18 00:16:42;;;;;;;4.73;4.23;;;20.10;99.90;;;;;;4991546;28;20611;-71
2022/09/18 00:19:09;;;;;;;5.60;4.80;;;20.10;99.90;;;;;;5003577;28;20177;-71
2022/09/18 00:21:41;;;;;;;12.50;4.63;;;20.10;99.90;;;;;;5005951;28;20216;-71
2022/09/18 00:24:07;;;;;;;6.20;4.43;;;20.10;99.90;;;;;;5015884;28;20204;-71
2022/09/18 00:26:34;;;;;;;6.97;4.70;;;20.20;99.90;;;;;;4982404;28;20190;-71
2022/09/18 00:29:01;;;;;;;7.87;4.80;;;20.20;99.90;;;;;;5000722;28;20280;-70
2022/09/18 00:31:32;;;;;;;7.30;4.70;;;20.20;99.90;;;;;;5009186;28;20283;-70
2022/09/18 00:34:01;;;;;;;7.20;4.87;;;20.30;99.90;;;;;;5006542;28;20689;-72
2022/09/18 00:36:29;;;;;;;8.00;4.53;;;20.30;99.90;;;;;;5009992;28;20344;-71
2022/09/18 00:39:01;;;;;;;7.80;4.93;;;20.40;99.90;;;;;;5008868;28;20264;-71
2022/09/18 00:41:37;;;;;;;8.30;4.50;;;20.40;99.90;;;;;;4992106;28;20192;-71
2022/09/18 00:44:34;;;;;;;8.37;4.90;;;20.30;99.90;;;;;;5003342;28;20182;-71
2022/09/18 00:47:09;;;;;;;6.83;4.90;;;20.30;99.90;;;;;;4994098;28;20189;-71
2022/09/18 00:49:42;;;;;;;5.67;5.00;;;20.30;99.90;;;;;;4988117;28;20907;-71
2022/09/18 00:52:09;;;;;;;8.23;5.23;;;20.40;99.90;;;;;;5001834;28;20185;-71
2022/09/18 00:54:42;;;;;;;8.50;5.23;;;20.30;99.90;;;;;;4995431;28;20242;-71
2022/09/18 00:57:24;;;;;;;8.33;4.90;;;20.30;99.90;;;;;;4987486;28;20825;-71
2022/09/18 00:59:53;;;;;;;6.50;4.60;;;20.30;99.90;;;;;;5009697;28;20281;-71
2022/09/18 01:02:21;;;;;;;5.67;4.47;;;20.30;99.90;;;;;;4969866;28;20189;-72
2022/09/18 01:04:49;;;;;;;7.17;4.60;;;20.30;99.90;;;;;;4992874;28;20681;-72
2022/09/18 01:07:56;;;;;;;8.57;4.63;;;20.30;99.90;;;;;;4978570;28;20280;-71
2022/09/18 01:10:47;;;;;;;9.30;4.50;;;20.30;99.90;;;;;;4991020;28;20193;-72
2022/09/18 01:13:28;;;;;;;6.67;4.47;;;20.30;99.90;;;;;;4985356;28;20246;-72
2022/09/18 01:16:17;;;;;;;6.47;4.80;;;20.30;99.90;;;;;;4998593;28;20220;-72
2022/09/18 01:19:12;;;;;;;9.10;5.17;;;20.30;99.90;;;;;;4988167;28;20196;-72
2022/09/18 01:22:15;;;;;;;8.00;4.63;;;20.30;99.90;;;;;;4990306;28;20200;-72
2022/09/18 01:25:31;;;;;;;8.40;4.97;;;20.20;99.90;;;;;;4990984;28;20205;-71
2022/09/18 01:29:01;;;;;;;7.80;5.00;;;20.30;99.90;;;;;;5008645;28;20666;-72
2022/09/18 01:31:43;;;;;;;11.33;4.97;;;20.20;99.90;;;;;;4967741;28;20714;-72
2022/09/18 01:34:23;;;;;;;6.57;4.93;;;20.20;99.90;;;;;;5007859;28;20181;-72
2022/09/18 01:37:00;;;;;;;7.33;4.70;;;20.20;99.90;;;;;;4975621;28;20242;-71
2022/09/18 01:39:43;;;;;;;7.70;4.77;;;20.30;99.90;;;;;;4993619;28;20204;-71
2022/09/18 01:42:17;;;;;;;7.60;4.50;;;20.30;99.90;;;;;;5010109;28;20187;-71
2022/09/18 01:44:46;;;;;;;10.03;4.73;;;20.30;99.90;;;;;;4986613;28;20248;-71
2022/09/18 01:47:19;;;;;;;9.07;4.93;;;20.30;99.90;;;;;;4982810;28;20889;-71
2022/09/18 01:49:48;;;;;;;8.33;4.70;;;20.30;99.90;;;;;;4980729;28;20252;-71
2022/09/18 01:52:28;;;;;;;7.40;4.57;;;20.30;99.90;;;;;;5001390;28;20554;-71
2022/09/18 01:55:00;;;;;;;6.10;4.63;;;20.30;99.90;;;;;;4996947;28;20192;-71
2022/09/18 01:57:40;;;;;;;6.97;4.87;;;20.30;99.90;;;;;;4993344;28;20678;-71
2022/09/18 02:00:11;;;;;;;6.77;5.10;;;20.30;99.90;;;;;;5010567;28;20251;-71
2022/09/18 02:02:48;;;;;;;8.37;5.17;;;20.30;99.90;;;;;;5010907;28;20653;-71
2022/09/18 02:05:28;;;;;;;10.77;4.77;;;20.30;99.90;;;;;;5009262;28;20262;-71
2022/09/18 02:08:20;;;;;;;9.83;5.00;;;20.30;99.90;;;;;;4993067;28;20188;-71
2022/09/18 02:11:05;;;;;;;8.23;4.97;;;20.30;99.90;;;;;;5009309;28;20993;-71
2022/09/18 02:13:52;;;;;;;7.63;5.10;;;20.30;99.90;;;;;;5010523;28;20173;-71
2022/09/18 02:16:45;;;;;;;8.03;4.60;;;20.30;99.90;;;;;;4991159;28;20212;-71
2022/09/18 02:19:20;;;;;;;7.53;5.00;;;20.30;99.90;;;;;;4998309;28;20240;-71
2022/09/18 02:21:50;;;;;;;8.47;5.20;;;20.30;99.90;;;;;;5009421;28;20223;-71
2022/09/18 02:24:23;;;;;;;9.73;4.73;;;20.30;99.90;;;;;;5003150;28;20255;-71
2022/09/18 02:26:53;;;;;;;12.57;5.50;;;20.30;99.90;;;;;;5006529;28;20268;-71
2022/09/18 02:29:23;;;;;;;8.00;5.20;;;20.40;99.90;;;;;;5008276;28;20239;-71
2022/09/18 02:31:52;;;;;;;11.00;5.43;;;20.40;99.90;;;;;;4992533;28;20268;-71
2022/09/18 02:34:20;;;;;;;7.50;4.73;;;20.40;99.90;;;;;;5008038;28;20196;-71
2022/09/18 02:37:26;;;;;;;9.43;5.37;;;20.40;99.90;;;;;;4998175;28;20220;-71
2022/09/18 02:40:19;;;;;;;8.73;4.83;;;20.40;99.90;;;;;;5008946;28;20276;-71
2022/09/18 02:43:17;;;;;;;8.73;6.07;;;20.40;99.90;;;;;;5003023;28;20935;-71
2022/09/18 02:46:26;;;;;;;9.83;5.67;;;20.50;99.90;;;;;;5006660;28;20666;-71
2022/09/18 02:49:29;;;;;;;10.30;6.07;;;20.50;99.90;;;;;;5010157;28;20177;-71
2022/09/18 02:52:41;;;;;;;10.70;6.17;;;20.40;99.90;;;;;;5008579;28;20431;-71
2022/09/18 02:55:45;;;;;;;11.20;5.63;;;20.40;99.90;;;;;;4968381;28;20200;-71
2022/09/18 02:59:13;;;;;;;10.97;5.10;;;20.40;99.90;;;;;;5008183;28;20666;-71
2022/09/18 03:01:43;;;;;;;11.13;5.60;;;20.40;99.90;;;;;;4954884;28;20193;-71
2022/09/18 03:04:14;;;;;;;8.20;4.97;;;20.40;99.90;;;;;;5007393;28;20181;-71
2022/09/18 03:06:41;;;;;;;10.00;5.50;;;20.40;99.90;;;;;;4992164;28;20246;-71
2022/09/18 03:09:07;;;;;;;11.00;5.10;;;20.40;99.90;;;;;;5009976;28;20181;-71
2022/09/18 03:11:35;;;;;;;11.57;5.20;;;20.30;99.90;;;;;;5005335;28;20192;-71
2022/09/18 03:14:02;;;;;;;9.30;5.20;;;20.30;99.90;;;;;;4991813;28;20193;-71
2022/09/18 03:16:30;;;;;;;10.60;5.50;;;20.30;99.90;;;;;;5009756;28;20251;-71
2022/09/18 03:19:00;;;;;;;10.07;4.80;;;20.30;99.90;;;;;;5008007;28;20193;-71
2022/09/18 03:21:27;;;;;;;9.37;5.50;;;20.30;99.90;;;;;;5006613;28;20254;-72
2022/09/18 03:23:54;;;;;;;11.50;5.63;;;20.20;99.90;;;;;;4990760;28;20189;-71
2022/09/18 03:26:21;;;;;;;11.20;5.43;;;20.20;99.90;;;;;;5005308;28;20619;-71
2022/09/18 03:28:47;;;;;;;10.83;5.40;;;20.20;99.90;;;;;;5005356;28;20916;-71
2022/09/18 03:31:14;;;;;;;10.33;5.87;;;20.20;99.90;;;;;;5007744;28;20192;-71
2022/09/18 03:33:40;;;;;;;10.40;6.37;;;20.20;99.90;;;;;;5011766;28;20243;-71
2022/09/18 03:36:07;;;;;;;12.60;7.37;;;20.20;99.90;;;;;;4995751;28;20764;-72
2022/09/18 03:38:36;;;;;;;13.67;7.53;;;20.20;99.90;;;;;;4995583;28;20239;-71
2022/09/18 03:41:03;;;;;;;12.47;6.93;;;20.20;99.90;;;;;;5006042;28;20185;-71
2022/09/18 03:43:30;;;;;;;13.73;7.00;;;20.20;99.90;;;;;;5011962;28;20654;-71
2022/09/18 03:45:56;;;;;;;16.20;6.13;;;20.20;99.90;;;;;;4995831;28;20277;-71
2022/09/18 03:48:23;;;;;;;13.40;6.17;;;20.20;99.90;;;;;;4995396;28;20267;-71
2022/09/18 03:50:49;;;;;;;8.40;5.90;;;20.20;99.90;;;;;;4979423;28;20662;-71
2022/09/18 03:53:16;;;;;;;10.17;5.70;;;20.20;99.90;;;;;;4978015;28;20272;-71
2022/09/18 03:55:42;;;;;;;12.80;5.93;;;20.20;99.90;;;;;;5012979;28;20212;-72
2022/09/18 03:58:08;;;;;;;14.23;6.23;;;20.30;99.90;;;;;;4972232;28;20176;-72
2022/09/18 04:00:35;;;;;;;12.03;5.67;;;20.20;99.90;;;;;;5012212;28;20247;-71
2022/09/18 04:03:01;;;;;;;13.33;5.70;;;20.30;99.90;;;;;;5011254;28;20221;-71
2022/09/18 04:05:28;;;;;;;10.57;6.30;;;20.30;99.90;;;;;;5011540;28;20199;-71
2022/09/18 04:07:55;;;;;;;8.80;5.57;;;20.30;99.90;;;;;;5012875;28;20255;-71
2022/09/18 04:10:21;;;;;;;10.23;6.03;;;20.30;99.90;;;;;;4995267;28;20311;-72
2022/09/18 04:12:47;;;;;;;10.70;5.67;;;20.30;99.90;;;;;;5021661;28;20786;-71
2022/09/18 04:15:18;;;;;;;14.37;6.50;;;20.30;99.90;;;;;;4988555;28;20181;-71
2022/09/18 04:17:54;;;;;;;9.90;5.30;;;20.40;99.90;;;;;;4992021;28;20178;-71
2022/09/18 04:20:23;;;;;;;10.87;6.03;;;20.40;99.90;;;;;;4991965;28;20794;-71
2022/09/18 04:22:49;;;;;;;11.37;6.27;;;20.40;99.90;;;;;;5003052;28;20690;-71
2022/09/18 04:25:17;;;;;;;8.73;5.67;;;20.40;99.90;;;;;;4993215;28;20216;-72
2022/09/18 04:27:47;;;;;;;9.03;5.50;;;20.40;99.90;;;;;;4986230;28;20216;-72
2022/09/18 04:30:14;;;;;;;13.83;5.70;;;20.40;99.90;;;;;;5008310;28;20178;-72
2022/09/18 04:32:43;;;;;;;10.03;5.57;;;20.40;99.90;;;;;;5011517;28;20216;-71
2022/09/18 04:35:10;;;;;;;12.47;5.40;;;20.50;99.90;;;;;;4991199;28;20186;-71
2022/09/18 04:37:36;;;;;;;8.03;5.07;;;20.50;99.90;;;;;;5012122;28;20173;-71
2022/09/18 04:40:06;;;;;;;10.87;4.97;;;20.50;99.90;;;;;;4994782;28;20263;-71
2022/09/18 04:42:32;;;;;;;11.60;5.67;;;20.50;99.90;;;;;;4990858;28;20181;-71
2022/09/18 04:44:59;;;;;;;11.97;5.33;;;20.50;99.90;;;;;;4994297;28;20271;-71
2022/09/18 04:47:25;;;;;;;9.00;5.10;;;20.60;99.90;;;;;;5012009;28;20654;-72
2022/09/18 04:49:52;;;;;;;11.03;5.70;;;20.60;99.90;;;;;;5010425;28;20251;-71
2022/09/18 04:52:19;;;;;;;11.60;5.80;;;20.60;99.90;;;;;;5010573;28;20192;-71
2022/09/18 04:54:45;;;;;;;10.77;5.93;;;20.70;99.90;;;;;;4994237;28;20779;-71
2022/09/18 04:57:13;;;;;;;10.73;5.93;;;20.70;99.90;;;;;;5012067;28;20351;-71
2022/09/18 04:59:39;;;;;;;10.27;5.50;;;20.70;99.90;;;;;;4986169;28;20192;-71
2022/09/18 05:02:05;;;;;;;9.90;5.93;;;20.70;99.90;;;;;;5002073;28;20189;-71
2022/09/18 05:04:32;;;;;;;15.57;5.93;;;20.80;99.90;;;;;;4977804;28;20527;-71
2022/09/18 05:06:58;;;;;;;11.50;6.00;;;20.90;99.90;;;;;;4978323;28;20198;-71
2022/09/18 05:09:24;;;;;;;10.43;6.13;;;20.90;99.90;;;;;;4977814;28;20184;-71
2022/09/18 05:11:54;;;;;;;8.07;6.17;;;21.00;99.90;;;;;;4993558;28;20193;-71
2022/09/18 05:14:21;;;;;;;10.77;5.80;;;21.00;99.90;;;;;;5011591;28;20292;-71
2022/09/18 05:16:48;;;;;;;11.07;5.87;;;21.10;99.90;;;;;;4993883;28;20215;-71
2022/09/18 05:19:14;;;;;;;9.93;5.80;;;21.10;99.90;;;;;;4994118;28;20192;-71
2022/09/18 05:21:40;;;;;;;8.80;6.10;;;21.30;99.90;;;;;;4992549;28;20817;-71
2022/09/18 05:24:07;;;;;;;16.83;6.37;;;21.30;99.90;;;;;;5008634;28;20189;-71
2022/09/18 05:26:34;;;;;;;9.53;5.80;;;21.40;99.90;;;;;;5010980;28;20271;-71
2022/09/18 05:29:00;;;;;;;11.70;5.73;;;21.50;99.90;;;;;;5007057;28;20192;-71
2022/09/18 05:31:26;;;;;;;15.83;6.00;;;21.50;99.90;;;;;;4995677;28;20626;-71
2022/09/18 05:33:53;;;;;;;10.73;5.90;;;21.60;99.90;;;;;;5008533;28;20199;-71
2022/09/18 05:36:20;;;;;;;12.27;5.77;;;21.70;99.90;;;;;;5011146;28;20201;-71
2022/09/18 05:38:47;;;;;;;9.77;5.60;;;21.80;99.90;;;;;;4979872;28;20665;-71
2022/09/18 05:41:13;;;;;;;13.13;5.80;;;21.90;99.90;;;;;;4993680;28;20192;-71
2022/09/18 05:43:44;;;;;;;14.37;5.90;;;21.90;99.90;;;;;;5009113;28;20197;-71
2022/09/18 05:46:10;;;;;;;10.60;5.50;;;22.00;99.90;;;;;;4993005;28;20181;-73
2022/09/18 05:48:37;;;;;;;10.33;5.33;;;22.00;99.90;;;;;;4977263;28;20574;-73
2022/09/18 05:51:04;;;;;;;12.18;5.50;;;22.10;99.90;;;;;;4993294;28;20204;-73
2022/09/18 05:53:32;;;;;;;10.00;5.80;;;22.20;99.90;;;;;;5006768;28;20512;-73
2022/09/18 05:55:59;;;;;;;16.23;5.20;;;22.20;99.90;;;;;;5009227;28;20303;-73
2022/09/18 05:58:27;;;;;;;9.00;5.57;;;22.20;99.90;;;;;;5011067;28;20192;-73
2022/09/18 06:01:00;;;;;;;8.63;5.05;;;22.30;99.90;;;;;;4993917;28;20217;-73
2022/09/18 06:03:26;;;;;;;9.53;5.03;;;22.30;99.90;;;;;;5008378;28;20185;-73
2022/09/18 06:05:54;;;;;;;13.15;5.25;;;22.40;99.90;;;;;;5024596;28;20176;-73
2022/09/18 06:08:21;;;;;;;11.02;4.78;;;22.40;99.90;;;;;;5010945;28;20177;-73
2022/09/18 06:10:48;;;;;;;9.02;4.65;;;22.50;99.90;;;;;;5010737;28;20247;-73
2022/09/18 06:13:17;;;;;;;8.55;4.90;;;22.60;99.90;;;;;;5002123;28;20195;-73
2022/09/18 06:15:46;;;;;;;7.88;4.70;;;22.60;99.90;;;;;;5008945;28;20293;-72
2022/09/18 06:18:13;;;;;;;11.05;5.13;;;22.60;99.90;;;;;;4976575;28;20181;-73
2022/09/18 06:20:41;;;;;;;11.13;4.68;;;22.60;99.90;;;;;;4993030;28;20268;-73
2022/09/18 06:23:08;;;;;;;11.38;4.63;;;22.70;99.90;;;;;;4991794;28;20200;-73
2022/09/18 06:25:35;;;;;;;15.40;4.43;;;22.70;99.90;;;;;;5010600;28;20227;-73
2022/09/18 06:28:02;;;;;;;12.77;4.75;;;22.80;99.90;;;;;;5010664;28;20181;-73
2022/09/18 06:30:34;;;;;;;9.55;4.57;;;22.80;99.90;;;;;;4975297;28;20280;-73
2022/09/18 06:33:07;;;;;;;13.35;4.78;;;22.90;99.90;;;;;;5001569;28;20223;-73
2022/09/18 06:35:40;;;;;;;13.40;4.60;;;23.00;99.90;;;;;;4988993;28;20893;-73
2022/09/18 06:38:08;;;;;;;11.18;5.05;;;22.90;99.90;;;;;;4987190;28;20184;-73
2022/09/18 06:40:34;;;;;;;9.70;4.38;;;23.00;99.90;;;;;;4991972;28;20189;-72
2022/09/18 06:43:02;;;;;;;8.82;4.45;;;23.10;99.90;;;;;;5010006;28;20189;-73
2022/09/18 06:45:30;;;;;;;8.20;4.50;;;23.10;99.90;;;;;;4989976;28;20215;-73
2022/09/18 06:48:02;;;;;;;14.00;4.28;;;23.20;99.90;;;;;;4993459;28;20185;-72
2022/09/18 06:50:28;;;;;;;7.53;3.90;;;23.30;99.90;;;;;;4976890;28;20546;-73
2022/09/18 06:53:04;;;;;;;11.38;4.75;;;23.30;99.90;;;;;;4990814;28;20184;-73
2022/09/18 06:55:31;;;;;;;10.30;3.88;;;23.40;99.90;;;;;;4999350;28;20239;-72
2022/09/18 06:58:00;;;;;;;9.50;4.07;;;23.40;99.90;;;;;;5008607;28;20184;-73
2022/09/18 07:00:27;;;;;;;12.48;4.65;;;23.50;99.90;;;;;;5011083;28;20187;-73
2022/09/18 07:03:00;;;;;;;10.20;4.53;;;23.50;99.90;;;;;;5007397;28;20181;-73
2022/09/18 07:05:32;;;;;;;11.00;3.85;;;23.60;99.90;;;;;;4995412;28;20188;-73
2022/09/18 07:07:59;;;;;;;9.80;4.50;;;23.70;99.90;;;;;;5011355;28;20248;-73
2022/09/18 07:10:27;;;;;;;13.05;4.75;;;23.70;99.90;;;;;;5015507;28;20196;-73
2022/09/18 07:13:01;;;;;;;11.85;4.43;;;23.90;99.90;;;;;;5017547;28;20331;-73
2022/09/18 07:15:31;;;;;;;13.85;4.07;;;23.90;99.90;;;;;;4978910;28;20827;-73
2022/09/18 07:18:01;;;;;;;10.98;4.15;;;24.00;99.90;;;;;;5016357;28;20208;-73
2022/09/18 07:20:28;;;;;;;11.90;4.03;;;24.10;99.90;;;;;;5003290;28;20262;-73
2022/09/18 07:22:59;;;;;;;10.02;4.30;;;24.10;99.90;;;;;;4985294;28;20215;-73
2022/09/18 07:25:28;;;;;;;9.70;4.00;;;24.20;99.90;;;;;;5003024;28;20222;-73
2022/09/18 07:27:54;;;;;;;8.07;3.45;;;24.20;99.90;;;;;;5008368;28;20212;-73
2022/09/18 07:30:22;;;;;;;7.07;4.00;;;24.30;99.90;;;;;;5001901;28;20188;-73
2022/09/18 07:32:48;;;;;;;5.68;4.00;;;24.30;99.90;;;;;;5016914;28;20571;-73
2022/09/18 07:35:15;;;;;;;10.05;3.63;;;24.40;99.90;;;;;;5008101;28;20193;-73
2022/09/18 07:37:42;;;;;;;5.63;3.53;;;24.50;99.90;;;;;;5015896;28;20271;-73
2022/09/18 07:40:11;;;;;;;16.25;4.00;;;24.60;99.90;;;;;;4988450;28;20201;-73
2022/09/18 07:42:38;;;;;;;9.88;3.80;;;24.60;99.90;;;;;;5008612;28;20577;-73
2022/09/18 07:45:06;;;;;;;8.63;3.90;;;24.60;99.90;;;;;;4989095;28;20239;-73
2022/09/18 07:47:33;;;;;;;17.10;3.85;;;24.70;99.90;;;;;;5010206;28;20207;-73
2022/09/18 07:50:00;;;;;;;8.77;3.60;;;24.80;99.90;;;;;;5011469;28;20219;-73
2022/09/18 07:52:26;;;;;;;9.68;3.63;;;24.90;99.90;;;;;;5007748;28;20189;-73
2022/09/18 07:54:52;;;;;;;16.60;4.03;;;24.90;99.90;;;;;;5013631;28;20276;-73
2022/09/18 07:57:19;;;;;;;12.73;3.40;;;25.00;99.90;;;;;;4991510;28;20690;-72
2022/09/18 07:59:45;;;;;;;12.07;3.50;;;25.10;99.90;;;;;;5011846;28;21041;-72
2022/09/18 08:02:11;;;;;;;8.07;3.72;;;25.10;99.90;;;;;;5006986;28;20191;-71
2022/09/18 08:04:38;;;;;;;15.38;3.70;;;25.20;99.90;;;;;;4999549;28;20181;-72
2022/09/18 08:07:06;;;;;;;9.65;3.53;;;25.30;99.90;;;;;;5012704;28;20208;-72
2022/09/18 08:09:32;;;;;;;13.25;3.55;;;25.40;99.90;;;;;;5003910;28;20185;-72
2022/09/18 08:11:59;;;;;;;7.07;3.40;;;25.40;99.90;;;;;;4985353;28;20192;-72
2022/09/18 08:14:25;;;;;;;9.32;4.00;;;25.40;99.90;;;;;;5003306;28;20211;-72
2022/09/18 08:16:52;;;;;;;10.38;4.07;;;25.50;99.90;;;;;;4984804;28;20209;-73
2022/09/18 08:19:19;;;;;;;10.02;3.53;;;25.50;99.90;;;;;;4990946;28;20177;-73
2022/09/18 08:21:46;;;;;;;6.32;3.20;;;25.60;99.90;;;;;;5009575;28;20192;-72
2022/09/18 08:24:12;;;;;;;14.63;4.00;;;25.60;99.90;;;;;;4977412;28;20201;-70
2022/09/18 08:26:38;;;;;;;15.10;3.60;;;25.70;99.90;;;;;;5005909;28;20221;-72
2022/09/18 08:29:06;;;;;;;9.25;4.05;;;25.70;99.90;;;;;;5003348;28;20188;-72
2022/09/18 08:31:32;;;;;;;9.40;3.67;;;25.80;99.90;;;;;;5002228;28;20198;-72
2022/09/18 08:33:58;;;;;;;8.80;3.22;;;25.80;99.90;;;;;;5007954;28;20894;-72
2022/09/18 08:36:25;;;;;;;13.70;3.80;;;25.90;99.90;;;;;;5003413;28;20223;-72
2022/09/18 08:38:54;;;;;;;10.07;3.78;;;25.90;99.90;;;;;;5013749;28;20188;-71
2022/09/18 08:41:43;;;;;;;10.75;3.67;;;26.00;99.90;;;;;;4994759;28;20185;-70
2022/09/18 08:44:20;;;;;;;9.10;3.60;;;26.10;99.90;;;;;;4983064;28;20193;-72
2022/09/18 08:47:04;;;;;;;9.95;3.60;;;26.10;99.90;;;;;;4990173;28;20192;-72
2022/09/18 08:49:38;;;;;;;9.65;3.63;;;26.10;99.90;;;;;;5009132;28;20251;-71
2022/09/18 08:52:14;;;;;;;15.30;4.47;;;26.20;99.90;;;;;;4999503;28;20195;-70
2022/09/18 08:55:03;;;;;;;8.43;3.45;;;26.30;99.90;;;;;;4973779;28;20191;-71
2022/09/18 08:57:56;;;;;;;9.88;3.75;;;26.30;99.90;;;;;;5018650;28;20757;-71
2022/09/18 09:00:41;;;;;;;11.45;3.97;;;26.40;99.90;;;;;;5004449;28;20200;-71
2022/09/18 09:03:41;;;;;;;12.57;3.50;;;26.40;99.90;;;;;;4998896;28;20185;-72
2022/09/18 09:06:45;;;;;;;12.70;3.95;;;26.60;99.90;;;;;;4985311;28;20267;-72
2022/09/18 09:09:52;;;;;;;12.30;3.95;;;26.60;99.90;;;;;;4955963;28;20223;-72
2022/09/18 09:13:03;;;;;;;11.90;3.97;;;26.60;99.90;;;;;;4994053;28;20247;-71
2022/09/18 09:15:55;;;;;;;10.93;3.83;;;26.70;99.90;;;;;;4984318;28;20193;-72
2022/09/18 09:18:45;;;;;;;9.15;3.65;;;26.80;99.90;;;;;;4999841;28;20188;-72
2022/09/18 09:21:37;;;;;;;10.65;3.78;;;27.00;99.90;;;;;;4994149;28;20238;-72
2022/09/18 09:24:43;;;;;;;8.60;3.60;;;27.00;99.90;;;;;;4993492;28;20204;-70
2022/09/18 09:27:50;;;;;;;11.20;4.50;;;27.20;99.90;;;;;;5011522;28;20211;-70
2022/09/18 09:30:20;;;;;;;13.18;3.78;;;27.40;99.90;;;;;;4992640;28;20277;-72
2022/09/18 09:33:23;;;;;;;8.10;3.80;;;27.60;99.90;;;;;;4992446;28;20646;-70
2022/09/18 09:35:58;;;;;;;7.32;3.78;;;27.80;99.90;;;;;;5009696;28;20208;-70
2022/09/18 09:38:55;;;;;;;7.97;3.28;;;27.90;99.90;;;;;;4988510;28;20180;-70
2022/09/18 09:41:43;;;;;;;11.77;3.40;;;27.80;99.90;;;;;;4987907;28;20185;-71
2022/09/18 09:44:26;;;;;;;10.30;3.58;;;28.20;99.90;;;;;;5009597;28;20570;-71
2022/09/18 09:47:07;;;;;;;11.48;3.47;;;28.50;99.90;;;;;;5006481;28;20334;-72
2022/09/18 09:50:09;;;;;;;6.85;3.08;;;28.70;99.90;;;;;;5011247;28;20646;-72
2022/09/18 09:52:42;;;;;;;13.98;4.25;;;30.00;99.90;;;;;;5010105;28;20212;-71
2022/09/18 09:55:18;;;;;;;8.25;3.15;;;31.50;99.90;;;;;;4988583;28;20177;-72
2022/09/18 09:58:11;;;;;;;13.27;3.67;;;32.60;99.90;;;;;;4990149;28;20189;-72
2022/09/18 10:01:20;;;;;;;8.70;2.97;;;32.30;99.90;;;;;;4991144;28;20216;-72
2022/09/18 10:04:05;;;;;;;5.70;3.22;;;31.20;99.90;;;;;;4978260;28;20555;-72
2022/09/18 10:06:46;;;;;;;11.55;3.75;;;30.40;99.90;;;;;;4990370;28;20627;-72
2022/09/18 10:09:41;;;;;;;13.48;3.60;;;30.20;99.90;;;;;;4993465;28;20280;-70
2022/09/18 10:12:28;;;;;;;12.18;3.42;;;30.00;99.90;;;;;;4987578;28;20176;-71
2022/09/18 10:15:23;;;;;;;10.05;3.97;;;30.20;99.90;;;;;;5010365;28;20184;-71
2022/09/18 10:17:58;;;;;;;6.65;3.20;;;31.90;99.90;;;;;;5000065;28;20197;-71
2022/09/18 10:20:31;;;;;;;7.53;3.40;;;33.00;99.90;;;;;;5010723;28;20176;-71
2022/09/18 10:23:10;;;;;;;11.98;3.33;;;34.10;99.90;;;;;;5009563;28;20191;-71
2022/09/18 10:25:51;;;;;;;10.63;3.40;;;34.00;99.90;;;;;;4992463;28;20227;-71
2022/09/18 10:28:17;;;;;;;9.32;3.28;;;32.20;99.90;;;;;;5009329;28;20193;-71
2022/09/18 10:31:03;;;;;;;8.45;3.10;;;30.70;99.90;;;;;;5009011;28;20721;-70
2022/09/18 10:33:40;;;;;;;9.85;3.40;;;29.70;99.90;;;;;;5009199;28;20212;-71
2022/09/18 10:36:34;;;;;;;14.02;3.38;;;29.20;99.90;;;;;;4976649;28;20605;-71
2022/09/18 10:39:25;;;;;;;11.63;3.28;;;29.00;99.90;;;;;;5005988;28;20189;-70
2022/09/18 10:42:04;;;;;;;8.00;3.38;;;28.70;99.90;;;;;;5008443;28;20253;-71
2022/09/18 10:44:42;;;;;;;8.40;2.92;;;28.60;99.90;;;;;;4994847;28;20263;-70
2022/09/18 10:47:24;;;;;;;10.63;3.70;;;28.50;99.90;;;;;;5010453;28;20268;-71
2022/09/18 10:50:27;;;;;;;9.50;3.30;;;28.40;99.90;;;;;;4989296;28;20677;-71
2022/09/18 10:52:53;;;;;;;13.18;3.47;;;28.40;99.90;;;;;;4936536;28;20197;-71
2022/09/18 10:55:29;;;;;;;7.68;3.33;;;28.40;99.90;;;;;;4972592;28;20667;-71
2022/09/18 10:58:14;;;;;;;7.47;3.42;;;28.40;99.90;;;;;;5003096;28;20176;-71
2022/09/18 11:00:57;;;;;;;10.18;3.40;;;28.40;99.90;;;;;;4992013;28;20267;-71
2022/09/18 11:03:48;;;;;;;14.55;3.60;;;28.30;99.90;;;;;;4992513;28;20181;-71
2022/09/18 11:06:25;;;;;;;8.38;3.10;;;28.10;99.90;;;;;;5008176;28;20185;-71
2022/09/18 11:08:59;;;;;;;9.55;3.25;;;28.30;99.90;;;;;;5007276;28;20216;-71
2022/09/18 11:11:36;;;;;;;9.45;3.17;;;28.30;99.90;;;;;;4987596;28;20277;-71
2022/09/18 11:14:15;;;;;;;20.17;3.83;;;28.40;99.90;;;;;;4988632;28;20185;-71
2022/09/18 11:16:47;;;;;;;11.75;4.38;;;28.50;99.90;;;;;;5007818;28;20713;-71
2022/09/18 11:19:28;;;;;;;6.53;3.10;;;28.40;99.90;;;;;;5001894;28;20706;-71
2022/09/18 11:22:02;;;;;;;10.63;3.55;;;28.40;99.90;;;;;;5002244;28;20188;-71
2022/09/18 11:24:36;;;;;;;9.13;3.47;;;28.40;99.90;;;;;;5008448;28;20594;-71
2022/09/18 11:27:20;;;;;;;8.40;3.30;;;28.40;99.90;;;;;;5008539;28;20238;-71
2022/09/18 11:29:47;;;;;;;10.05;3.58;;;28.30;99.90;;;;;;4973091;28;20228;-72
2022/09/18 11:32:45;;;;;;;11.75;3.38;;;28.20;99.90;;;;;;4972818;28;20564;-71
2022/09/18 11:35:16;;;;;;;13.00;3.58;;;28.20;99.90;;;;;;4968794;28;20228;-71
2022/09/18 11:37:56;;;;;;;11.57;3.42;;;28.10;99.90;;;;;;4956577;28;20213;-71
2022/09/18 11:40:31;;;;;;;9.68;2.90;;;28.10;99.90;;;;;;4961777;28;20180;-72
2022/09/18 11:43:04;;;;;;;10.73;3.47;;;28.10;99.90;;;;;;5005351;28;20203;-71
2022/09/18 11:45:49;;;;;;;10.40;3.17;;;28.10;99.90;;;;;;5008340;28;20181;-71
2022/09/18 11:48:50;;;;;;;5.88;3.33;;;28.10;99.90;;;;;;5006635;28;20608;-71
2022/09/18 11:51:47;;;;;;;8.55;3.28;;;28.00;99.90;;;;;;4978665;28;20175;-72
2022/09/18 11:55:18;;;;;;;9.27;3.30;;;28.10;99.90;;;;;;4993522;28;20216;-72
2022/09/18 11:57:55;;;;;;;12.07;3.22;;;28.10;99.90;;;;;;4994833;28;20220;-71
2022/09/18 12:00:27;;;;;;;10.38;2.97;;;28.10;99.90;;;;;;5013217;28;20268;-71
2022/09/18 12:02:59;;;;;;;6.43;2.90;;;27.90;99.90;;;;;;4979451;28;20228;-71
2022/09/18 12:05:54;;;;;;;7.45;3.25;;;27.90;99.90;;;;;;4995318;28;20181;-71
2022/09/18 12:08:55;;;;;;;11.93;3.28;;;27.90;99.90;;;;;;5012972;28;20335;-71
2022/09/18 12:11:26;;;;;;;8.27;3.20;;;27.90;99.90;;;;;;4992702;28;20670;-72
2022/09/18 12:14:33;;;;;;;8.02;2.95;;;27.80;99.90;;;;;;5008953;28;20188;-72
2022/09/18 12:17:25;;;;;;;6.97;2.75;;;27.90;99.90;;;;;;4962627;28;20753;-71
2022/09/18 12:20:04;;;;;;;8.18;3.13;;;27.90;99.90;;;;;;4975977;28;20280;-71
2022/09/18 12:22:48;;;;;;;9.80;3.03;;;27.70;99.90;;;;;;5009482;28;20215;-72
2022/09/18 12:25:17;;;;;;;5.68;2.47;;;27.80;99.90;;;;;;4995018;28;20295;-71
2022/09/18 12:28:07;;;;;;;7.22;3.20;;;27.80;99.90;;;;;;5011722;28;20196;-71
2022/09/18 12:30:53;;;;;;;4.80;2.65;;;27.90;99.90;;;;;;5012599;28;20181;-71
2022/09/18 12:33:31;;;;;;;8.13;2.78;;;27.90;99.90;;;;;;5011105;28;20180;-71
2022/09/18 12:36:40;;;;;;;7.03;3.10;;;27.80;99.90;;;;;;4994896;28;20212;-71
2022/09/18 12:39:27;;;;;;;11.20;2.90;;;27.80;99.90;;;;;;4994779;28;20189;-72
2022/09/18 12:42:05;;;;;;;6.65;2.90;;;27.80;99.90;;;;;;4992345;28;20267;-72
2022/09/18 12:45:02;;;;;;;5.90;2.97;;;27.90;99.90;;;;;;4981764;28;20185;-72
2022/09/18 12:48:00;;;;;;;9.60;3.15;;;27.80;99.90;;;;;;5012040;28;20192;-72
2022/09/18 12:50:45;;;;;;;6.88;3.50;;;27.80;99.90;;;;;;4993744;28;20250;-71
2022/09/18 12:53:40;;;;;;;7.13;3.25;;;27.80;99.90;;;;;;4994108;28;20191;-72
2022/09/18 12:56:56;;;;;;;9.57;3.40;;;27.70;99.90;;;;;;4977927;28;20236;-71
2022/09/18 12:59:53;;;;;;;10.88;2.88;;;27.70;99.90;;;;;;4994475;28;20184;-71
2022/09/18 13:02:29;;;;;;;11.20;3.40;;;27.60;99.90;;;;;;4994163;28;20181;-72
2022/09/18 13:05:06;;;;;;;8.10;3.20;;;27.70;99.90;;;;;;5010729;28;20215;-72
2022/09/18 13:07:44;;;;;;;8.20;3.13;;;27.70;99.90;;;;;;4994742;28;20499;-72
2022/09/18 13:10:33;;;;;;;7.65;2.97;;;27.70;99.90;;;;;;4994340;28;20207;-71
2022/09/18 13:13:09;;;;;;;6.82;3.28;;;27.60;99.90;;;;;;5005389;28;20260;-72
2022/09/18 13:15:47;;;;;;;7.30;3.33;;;27.40;99.90;;;;;;4988621;28;20176;-71
2022/09/18 13:18:26;;;;;;;6.68;3.05;;;27.40;99.90;;;;;;4986493;28;20211;-72
2022/09/18 13:20:56;;;;;;;7.95;3.33;;;27.30;99.90;;;;;;5017380;28;20224;-72
2022/09/18 13:23:34;;;;;;;6.90;3.20;;;27.30;99.90;;;;;;5006664;28;20271;-71
2022/09/18 13:26:04;;;;;;;4.35;2.90;;;27.30;99.90;;;;;;5010585;28;20569;-71
2022/09/18 13:28:32;;;;;;;9.52;3.42;;;27.40;99.90;;;;;;4977942;28;20212;-72
2022/09/18 13:31:20;;;;;;;6.25;3.13;;;27.30;99.90;;;;;;4971482;28;20325;-72